sensor_id;sensor_type;location;lat;lon;timestamp;temperature;humidity
26035;DHT22;13809;48.632;11.576;2023-08-30T00:02:13;17.90;52.90
26035;DHT22;13809;48.632;11.576;2023-08-30T00:07:17;17.90;52.80
26035;DHT22;13809;48.632;11.576;2023-08-30T00:12:20;17.90;52.80
26035;DHT22;13809;48.632;11.576;2023-08-30T00:17:24;17.80;52.70
26035;DHT22;13809;48.632;11.576;2023-08-30T00:22:29;17.80;53.00
26035;DHT22;13809;48.632;11.576;2023-08-30T00:27:33;17.70;53.10
26035;DHT22;13809;48.632;11.576;2023-08-30T00:32:36;17.80;53.10
26035;DHT22;13809;48.632;11.576;2023-08-30T00:37:40;17.80;53.10
26035;DHT22;13809;48.632;11.576;2023-08-30T00:42:44;17.80;52.90
26035;DHT22;13809;48.632;11.576;2023-08-30T00:47:47;17.70;52.80
26035;DHT22;13809;48.632;11.576;2023-08-30T00:52:51;17.80;52.90
26035;DHT22;13809;48.632;11.576;2023-08-30T00:57:54;17.70;52.80
26035;DHT22;13809;48.632;11.576;2023-08-30T01:02:58;17.70;52.80
26035;DHT22;13809;48.632;11.576;2023-08-30T01:08:03;17.60;52.90
26035;DHT22;13809;48.632;11.576;2023-08-30T01:13:10;17.60;53.00
26035;DHT22;13809;48.632;11.576;2023-08-30T01:18:18;17.50;53.10
26035;DHT22;13809;48.632;11.576;2023-08-30T01:23:34;17.50;53.40
26035;DHT22;13809;48.632;11.576;2023-08-30T01:28:41;17.50;53.10
26035;DHT22;13809;48.632;11.576;2023-08-30T01:33:44;17.50;53.20
26035;DHT22;13809;48.632;11.576;2023-08-30T01:38:48;17.40;53.50
26035;DHT22;13809;48.632;11.576;2023-08-30T01:43:53;17.40;53.60
26035;DHT22;13809;48.632;11.576;2023-08-30T01:48:57;17.40;53.70
26035;DHT22;13809;48.632;11.576;2023-08-30T01:54:00;17.50;53.90
26035;DHT22;13809;48.632;11.576;2023-08-30T01:59:06;17.50;54.40
26035;DHT22;13809;48.632;11.576;2023-08-30T02:04:09;17.50;53.80
26035;DHT22;13809;48.632;11.576;2023-08-30T02:09:17;17.50;53.50
26035;DHT22;13809;48.632;11.576;2023-08-30T02:14:24;17.50;53.50
26035;DHT22;13809;48.632;11.576;2023-08-30T02:19:28;17.60;53.80
26035;DHT22;13809;48.632;11.576;2023-08-30T02:24:31;17.60;53.50
26035;DHT22;13809;48.632;11.576;2023-08-30T02:29:36;17.60;53.50
26035;DHT22;13809;48.632;11.576;2023-08-30T02:34:39;17.70;53.50
26035;DHT22;13809;48.632;11.576;2023-08-30T02:39:42;17.70;53.40
26035;DHT22;13809;48.632;11.576;2023-08-30T02:44:47;17.70;53.20
26035;DHT22;13809;48.632;11.576;2023-08-30T02:49:50;17.60;52.90
26035;DHT22;13809;48.632;11.576;2023-08-30T02:54:53;17.60;53.10
26035;DHT22;13809;48.632;11.576;2023-08-30T02:59:58;17.60;53.00
26035;DHT22;13809;48.632;11.576;2023-08-30T03:05:01;17.60;52.90
26035;DHT22;13809;48.632;11.576;2023-08-30T03:10:06;17.60;52.90
26035;DHT22;13809;48.632;11.576;2023-08-30T03:15:11;17.60;52.80
26035;DHT22;13809;48.632;11.576;2023-08-30T03:20:14;17.50;52.80
26035;DHT22;13809;48.632;11.576;2023-08-30T03:25:18;17.50;53.00
26035;DHT22;13809;48.632;11.576;2023-08-30T03:30:22;17.40;53.10
26035;DHT22;13809;48.632;11.576;2023-08-30T03:35:25;17.40;53.10
26035;DHT22;13809;48.632;11.576;2023-08-30T03:40:29;17.30;53.10
26035;DHT22;13809;48.632;11.576;2023-08-30T03:45:36;17.30;53.30
26035;DHT22;13809;48.632;11.576;2023-08-30T03:50:39;17.30;53.20
26035;DHT22;13809;48.632;11.576;2023-08-30T03:55:42;17.20;53.20
26035;DHT22;13809;48.632;11.576;2023-08-30T04:00:47;17.30;53.40
26035;DHT22;13809;48.632;11.576;2023-08-30T04:05:55;17.20;53.50
26035;DHT22;13809;48.632;11.576;2023-08-30T04:10:59;17.20;53.60
26035;DHT22;13809;48.632;11.576;2023-08-30T04:16:03;17.20;53.50
26035;DHT22;13809;48.632;11.576;2023-08-30T04:21:07;17.20;53.50
26035;DHT22;13809;48.632;11.576;2023-08-30T04:26:10;17.20;53.40
26035;DHT22;13809;48.632;11.576;2023-08-30T04:31:15;17.20;53.70
26035;DHT22;13809;48.632;11.576;2023-08-30T04:36:18;17.20;53.80
26035;DHT22;13809;48.632;11.576;2023-08-30T04:41:21;17.30;53.60
26035;DHT22;13809;48.632;11.576;2023-08-30T04:46:26;17.30;53.50
26035;DHT22;13809;48.632;11.576;2023-08-30T04:51:29;17.20;53.50
26035;DHT22;13809;48.632;11.576;2023-08-30T04:56:32;17.20;53.50
26035;DHT22;13809;48.632;11.576;2023-08-30T05:01:39;17.20;53.70
26035;DHT22;13809;48.632;11.576;2023-08-30T05:06:45;17.20;54.00
26035;DHT22;13809;48.632;11.576;2023-08-30T05:11:49;17.20;53.80
26035;DHT22;13809;48.632;11.576;2023-08-30T05:16:53;17.20;53.80
26035;DHT22;13809;48.632;11.576;2023-08-30T05:21:57;17.30;53.90
26035;DHT22;13809;48.632;11.576;2023-08-30T05:27:00;17.30;53.70
26035;DHT22;13809;48.632;11.576;2023-08-30T05:32:05;17.30;53.80
26035;DHT22;13809;48.632;11.576;2023-08-30T05:37:08;17.30;54.00
26035;DHT22;13809;48.632;11.576;2023-08-30T05:42:12;17.30;54.10
26035;DHT22;13809;48.632;11.576;2023-08-30T05:47:16;17.30;54.00
26035;DHT22;13809;48.632;11.576;2023-08-30T05:52:21;17.40;54.20
26035;DHT22;13809;48.632;11.576;2023-08-30T05:57:24;17.40;54.40
26035;DHT22;13809;48.632;11.576;2023-08-30T06:02:30;17.40;54.40
26035;DHT22;13809;48.632;11.576;2023-08-30T06:07:33;17.40;54.50
26035;DHT22;13809;48.632;11.576;2023-08-30T06:12:36;17.50;54.20
26035;DHT22;13809;48.632;11.576;2023-08-30T06:17:41;17.50;54.40
26035;DHT22;13809;48.632;11.576;2023-08-30T06:22:45;17.50;54.30
26035;DHT22;13809;48.632;11.576;2023-08-30T06:27:56;17.50;54.90
26035;DHT22;13809;48.632;11.576;2023-08-30T06:33:01;17.60;54.70
26035;DHT22;13809;48.632;11.576;2023-08-30T06:38:05;17.60;54.40
26035;DHT22;13809;48.632;11.576;2023-08-30T06:43:08;17.60;54.70
26035;DHT22;13809;48.632;11.576;2023-08-30T06:48:13;17.70;54.80
26035;DHT22;13809;48.632;11.576;2023-08-30T06:53:16;17.80;54.90
26035;DHT22;13809;48.632;11.576;2023-08-30T06:58:19;17.80;54.70
26035;DHT22;13809;48.632;11.576;2023-08-30T07:03:24;17.90;55.00
26035;DHT22;13809;48.632;11.576;2023-08-30T07:08:27;18.00;55.40
26035;DHT22;13809;48.632;11.576;2023-08-30T07:13:30;18.00;54.60
26035;DHT22;13809;48.632;11.576;2023-08-30T07:18:35;18.10;54.50
26035;DHT22;13809;48.632;11.576;2023-08-30T07:23:38;18.20;54.30
26035;DHT22;13809;48.632;11.576;2023-08-30T07:28:41;18.30;55.10
26035;DHT22;13809;48.632;11.576;2023-08-30T07:33:46;18.40;54.80
26035;DHT22;13809;48.632;11.576;2023-08-30T07:38:49;18.40;53.90
26035;DHT22;13809;48.632;11.576;2023-08-30T07:43:53;18.50;53.80
26035;DHT22;13809;48.632;11.576;2023-08-30T07:48:58;18.60;53.40
26035;DHT22;13809;48.632;11.576;2023-08-30T07:54:01;18.60;53.30
26035;DHT22;13809;48.632;11.576;2023-08-30T07:59:06;18.70;52.90
26035;DHT22;13809;48.632;11.576;2023-08-30T08:04:11;18.70;53.10
26035;DHT22;13809;48.632;11.576;2023-08-30T08:09:14;18.80;52.90
26035;DHT22;13809;48.632;11.576;2023-08-30T08:14:17;18.70;52.70
26035;DHT22;13809;48.632;11.576;2023-08-30T08:19:22;18.70;52.90
26035;DHT22;13809;48.632;11.576;2023-08-30T08:24:27;18.90;52.70
26035;DHT22;13809;48.632;11.576;2023-08-30T08:29:31;18.90;52.70
26035;DHT22;13809;48.632;11.576;2023-08-30T08:34:35;19.00;52.70
26035;DHT22;13809;48.632;11.576;2023-08-30T08:39:39;19.10;52.60
26035;DHT22;13809;48.632;11.576;2023-08-30T08:44:42;19.20;52.90
26035;DHT22;13809;48.632;11.576;2023-08-30T08:49:48;19.20;52.60
26035;DHT22;13809;48.632;11.576;2023-08-30T08:54:52;19.20;51.90
26035;DHT22;13809;48.632;11.576;2023-08-30T08:59:57;19.30;52.20
26035;DHT22;13809;48.632;11.576;2023-08-30T09:05:02;19.40;52.20
26035;DHT22;13809;48.632;11.576;2023-08-30T09:10:07;19.40;51.40
26035;DHT22;13809;48.632;11.576;2023-08-30T09:15:10;19.50;51.50
26035;DHT22;13809;48.632;11.576;2023-08-30T09:20:15;19.50;51.90
26035;DHT22;13809;48.632;11.576;2023-08-30T09:25:24;19.60;51.60
26035;DHT22;13809;48.632;11.576;2023-08-30T09:30:28;19.60;50.90
26035;DHT22;13809;48.632;11.576;2023-08-30T09:35:43;19.70;51.80
26035;DHT22;13809;48.632;11.576;2023-08-30T09:40:46;19.70;50.70
26035;DHT22;13809;48.632;11.576;2023-08-30T09:45:50;19.90;52.20
26035;DHT22;13809;48.632;11.576;2023-08-30T09:50:58;20.00;51.70
26035;DHT22;13809;48.632;11.576;2023-08-30T09:56:02;20.20;50.90
26035;DHT22;13809;48.632;11.576;2023-08-30T10:01:06;20.30;52.20
26035;DHT22;13809;48.632;11.576;2023-08-30T10:06:11;20.50;51.30
26035;DHT22;13809;48.632;11.576;2023-08-30T10:11:14;20.70;50.50
26035;DHT22;13809;48.632;11.576;2023-08-30T10:16:20;20.80;50.30
26035;DHT22;13809;48.632;11.576;2023-08-30T10:21:27;21.00;49.60
26035;DHT22;13809;48.632;11.576;2023-08-30T10:26:32;21.10;48.70
26035;DHT22;13809;48.632;11.576;2023-08-30T10:31:37;21.20;49.80
26035;DHT22;13809;48.632;11.576;2023-08-30T10:36:43;21.40;48.10
26035;DHT22;13809;48.632;11.576;2023-08-30T10:41:56;21.50;48.10
26035;DHT22;13809;48.632;11.576;2023-08-30T10:47:02;21.50;46.80
26035;DHT22;13809;48.632;11.576;2023-08-30T10:52:12;21.70;46.80
26035;DHT22;13809;48.632;11.576;2023-08-30T10:57:20;21.80;44.90
26035;DHT22;13809;48.632;11.576;2023-08-30T11:02:24;21.90;46.90
26035;DHT22;13809;48.632;11.576;2023-08-30T11:07:29;22.00;45.60
26035;DHT22;13809;48.632;11.576;2023-08-30T11:12:33;22.00;44.50
26035;DHT22;13809;48.632;11.576;2023-08-30T11:17:37;21.90;45.50
26035;DHT22;13809;48.632;11.576;2023-08-30T11:22:43;21.90;45.90
26035;DHT22;13809;48.632;11.576;2023-08-30T11:27:46;21.90;44.60
26035;DHT22;13809;48.632;11.576;2023-08-30T11:32:50;21.90;45.50
26035;DHT22;13809;48.632;11.576;2023-08-30T11:37:55;21.90;46.10
26035;DHT22;13809;48.632;11.576;2023-08-30T11:43:01;21.90;43.90
26035;DHT22;13809;48.632;11.576;2023-08-30T11:48:07;22.00;43.70
26035;DHT22;13809;48.632;11.576;2023-08-30T11:53:12;22.10;45.20
26035;DHT22;13809;48.632;11.576;2023-08-30T11:58:18;22.10;44.50
26035;DHT22;13809;48.632;11.576;2023-08-30T12:03:21;22.20;43.90
26035;DHT22;13809;48.632;11.576;2023-08-30T12:08:27;22.20;44.40
26035;DHT22;13809;48.632;11.576;2023-08-30T12:13:32;22.20;43.80
26035;DHT22;13809;48.632;11.576;2023-08-30T12:18:36;22.30;43.70
26035;DHT22;13809;48.632;11.576;2023-08-30T12:23:40;22.30;44.10
26035;DHT22;13809;48.632;11.576;2023-08-30T12:28:44;22.40;43.10
26035;DHT22;13809;48.632;11.576;2023-08-30T12:33:47;22.40;44.90
26035;DHT22;13809;48.632;11.576;2023-08-30T12:38:51;22.50;44.30
26035;DHT22;13809;48.632;11.576;2023-08-30T12:43:55;22.60;42.30
26035;DHT22;13809;48.632;11.576;2023-08-30T12:48:58;22.60;43.20
26035;DHT22;13809;48.632;11.576;2023-08-30T12:54:03;22.60;42.70
26035;DHT22;13809;48.632;11.576;2023-08-30T12:59:06;22.50;41.90
26035;DHT22;13809;48.632;11.576;2023-08-30T13:04:10;22.50;43.20
26035;DHT22;13809;48.632;11.576;2023-08-30T13:09:14;22.50;42.80
26035;DHT22;13809;48.632;11.576;2023-08-30T13:14:17;22.50;41.90
26035;DHT22;13809;48.632;11.576;2023-08-30T13:19:21;22.40;42.10
26035;DHT22;13809;48.632;11.576;2023-08-30T13:24:25;22.30;41.80
26035;DHT22;13809;48.632;11.576;2023-08-30T13:29:29;22.20;41.70
26035;DHT22;13809;48.632;11.576;2023-08-30T13:34:32;22.20;41.80
26035;DHT22;13809;48.632;11.576;2023-08-30T13:39:36;22.10;42.30
26035;DHT22;13809;48.632;11.576;2023-08-30T13:44:40;22.00;42.50
26035;DHT22;13809;48.632;11.576;2023-08-30T13:49:45;22.10;43.10
26035;DHT22;13809;48.632;11.576;2023-08-30T13:54:50;22.20;42.60
26035;DHT22;13809;48.632;11.576;2023-08-30T13:59:54;22.30;41.60
26035;DHT22;13809;48.632;11.576;2023-08-30T14:04:57;22.30;42.30
26035;DHT22;13809;48.632;11.576;2023-08-30T14:10:01;22.30;41.60
26035;DHT22;13809;48.632;11.576;2023-08-30T14:15:05;22.30;40.10
26035;DHT22;13809;48.632;11.576;2023-08-30T14:20:09;22.40;41.50
26035;DHT22;13809;48.632;11.576;2023-08-30T14:25:15;22.40;40.60
26035;DHT22;13809;48.632;11.576;2023-08-30T14:30:18;22.50;38.70
26035;DHT22;13809;48.632;11.576;2023-08-30T14:35:22;22.50;40.50
26035;DHT22;13809;48.632;11.576;2023-08-30T14:40:27;22.50;40.00
26035;DHT22;13809;48.632;11.576;2023-08-30T14:45:31;22.50;38.80
26035;DHT22;13809;48.632;11.576;2023-08-30T14:50:34;22.50;41.20
26035;DHT22;13809;48.632;11.576;2023-08-30T14:55:38;22.60;40.50
26035;DHT22;13809;48.632;11.576;2023-08-30T15:00:41;22.70;39.00
26035;DHT22;13809;48.632;11.576;2023-08-30T15:05:52;22.70;40.40
26035;DHT22;13809;48.632;11.576;2023-08-30T15:10:58;22.80;38.70
26035;DHT22;13809;48.632;11.576;2023-08-30T15:16:01;22.70;39.40
26035;DHT22;13809;48.632;11.576;2023-08-30T15:21:05;22.60;38.80
26035;DHT22;13809;48.632;11.576;2023-08-30T15:26:10;22.40;38.60
26035;DHT22;13809;48.632;11.576;2023-08-30T15:31:18;22.30;38.50
26035;DHT22;13809;48.632;11.576;2023-08-30T15:36:21;22.20;38.60
26035;DHT22;13809;48.632;11.576;2023-08-30T15:41:26;22.10;39.30
26035;DHT22;13809;48.632;11.576;2023-08-30T15:46:29;22.10;39.20
26035;DHT22;13809;48.632;11.576;2023-08-30T15:51:35;22.10;40.10
26035;DHT22;13809;48.632;11.576;2023-08-30T15:56:39;22.10;40.40
26035;DHT22;13809;48.632;11.576;2023-08-30T16:01:43;22.10;39.80
26035;DHT22;13809;48.632;11.576;2023-08-30T16:06:46;22.20;39.80
26035;DHT22;13809;48.632;11.576;2023-08-30T16:11:51;22.20;39.70
26035;DHT22;13809;48.632;11.576;2023-08-30T16:16:54;22.10;39.30
26035;DHT22;13809;48.632;11.576;2023-08-30T16:21:57;22.00;39.60
26035;DHT22;13809;48.632;11.576;2023-08-30T16:27:02;22.00;39.30
26035;DHT22;13809;48.632;11.576;2023-08-30T16:32:05;21.90;38.90
26035;DHT22;13809;48.632;11.576;2023-08-30T16:37:08;21.90;39.90
26035;DHT22;13809;48.632;11.576;2023-08-30T16:42:13;21.90;40.00
26035;DHT22;13809;48.632;11.576;2023-08-30T16:47:16;22.00;39.90
26035;DHT22;13809;48.632;11.576;2023-08-30T16:52:20;22.00;39.90
26035;DHT22;13809;48.632;11.576;2023-08-30T16:57:24;22.10;39.80
26035;DHT22;13809;48.632;11.576;2023-08-30T17:02:31;22.10;39.60
26035;DHT22;13809;48.632;11.576;2023-08-30T17:07:36;22.10;40.00
26035;DHT22;13809;48.632;11.576;2023-08-30T17:12:41;22.10;40.30
26035;DHT22;13809;48.632;11.576;2023-08-30T17:17:44;22.20;40.10
26035;DHT22;13809;48.632;11.576;2023-08-30T17:22:49;22.20;40.10
26035;DHT22;13809;48.632;11.576;2023-08-30T17:27:53;22.20;39.60
26035;DHT22;13809;48.632;11.576;2023-08-30T17:32:57;22.00;39.40
26035;DHT22;13809;48.632;11.576;2023-08-30T17:38:01;22.00;40.10
26035;DHT22;13809;48.632;11.576;2023-08-30T17:43:06;21.90;40.40
26035;DHT22;13809;48.632;11.576;2023-08-30T17:48:09;21.80;41.00
26035;DHT22;13809;48.632;11.576;2023-08-30T17:53:12;21.80;41.00
26035;DHT22;13809;48.632;11.576;2023-08-30T17:58:19;21.80;41.10
26035;DHT22;13809;48.632;11.576;2023-08-30T18:03:22;21.80;41.10
26035;DHT22;13809;48.632;11.576;2023-08-30T18:08:26;21.80;41.20
26035;DHT22;13809;48.632;11.576;2023-08-30T18:13:31;21.70;41.10
26035;DHT22;13809;48.632;11.576;2023-08-30T18:18:34;21.70;41.00
26035;DHT22;13809;48.632;11.576;2023-08-30T18:23:40;21.50;40.80
26035;DHT22;13809;48.632;11.576;2023-08-30T18:28:46;21.30;41.00
26035;DHT22;13809;48.632;11.576;2023-08-30T18:33:50;21.00;40.90
26035;DHT22;13809;48.632;11.576;2023-08-30T18:38:53;20.90;41.20
26035;DHT22;13809;48.632;11.576;2023-08-30T18:43:58;20.70;41.20
26035;DHT22;13809;48.632;11.576;2023-08-30T18:49:01;20.60;40.50
26035;DHT22;13809;48.632;11.576;2023-08-30T18:54:05;20.40;40.70
26035;DHT22;13809;48.632;11.576;2023-08-30T18:59:13;20.30;40.60
26035;DHT22;13809;48.632;11.576;2023-08-30T19:04:16;20.10;40.80
26035;DHT22;13809;48.632;11.576;2023-08-30T19:09:20;20.00;41.20
26035;DHT22;13809;48.632;11.576;2023-08-30T19:14:24;19.90;41.60
26035;DHT22;13809;48.632;11.576;2023-08-30T19:19:27;19.80;41.90
26035;DHT22;13809;48.632;11.576;2023-08-30T19:24:32;19.80;42.00
26035;DHT22;13809;48.632;11.576;2023-08-30T19:29:40;19.80;42.40
26035;DHT22;13809;48.632;11.576;2023-08-30T19:34:45;19.70;42.30
26035;DHT22;13809;48.632;11.576;2023-08-30T19:39:50;19.60;42.10
26035;DHT22;13809;48.632;11.576;2023-08-30T19:44:54;19.50;42.50
26035;DHT22;13809;48.632;11.576;2023-08-30T19:50:00;19.40;43.10
26035;DHT22;13809;48.632;11.576;2023-08-30T19:55:04;19.30;43.10
26035;DHT22;13809;48.632;11.576;2023-08-30T20:00:10;19.40;43.40
26035;DHT22;13809;48.632;11.576;2023-08-30T20:05:13;19.40;43.80
26035;DHT22;13809;48.632;11.576;2023-08-30T20:10:17;19.50;43.30
26035;DHT22;13809;48.632;11.576;2023-08-30T20:15:22;19.50;43.30
26035;DHT22;13809;48.632;11.576;2023-08-30T20:20:33;19.40;43.40
26035;DHT22;13809;48.632;11.576;2023-08-30T20:25:38;19.30;43.80
26035;DHT22;13809;48.632;11.576;2023-08-30T20:30:47;19.20;43.40
26035;DHT22;13809;48.632;11.576;2023-08-30T20:35:50;19.20;44.20
26035;DHT22;13809;48.632;11.576;2023-08-30T20:40:53;19.10;43.80
26035;DHT22;13809;48.632;11.576;2023-08-30T20:45:58;19.00;43.90
26035;DHT22;13809;48.632;11.576;2023-08-30T20:51:02;18.90;44.50
26035;DHT22;13809;48.632;11.576;2023-08-30T20:56:07;18.80;44.20
26035;DHT22;13809;48.632;11.576;2023-08-30T21:01:12;18.70;44.60
26035;DHT22;13809;48.632;11.576;2023-08-30T21:06:16;18.70;45.10
26035;DHT22;13809;48.632;11.576;2023-08-30T21:11:19;18.70;44.70
26035;DHT22;13809;48.632;11.576;2023-08-30T21:16:24;18.60;45.00
26035;DHT22;13809;48.632;11.576;2023-08-30T21:21:27;18.70;45.20
26035;DHT22;13809;48.632;11.576;2023-08-30T21:26:31;18.80;44.70
26035;DHT22;13809;48.632;11.576;2023-08-30T21:31:35;18.80;44.80
26035;DHT22;13809;48.632;11.576;2023-08-30T21:36:38;18.80;45.00
26035;DHT22;13809;48.632;11.576;2023-08-30T21:41:42;18.90;44.50
26035;DHT22;13809;48.632;11.576;2023-08-30T21:46:46;18.90;44.10
26035;DHT22;13809;48.632;11.576;2023-08-30T21:51:49;18.90;44.10
26035;DHT22;13809;48.632;11.576;2023-08-30T21:56:53;18.80;43.90
26035;DHT22;13809;48.632;11.576;2023-08-30T22:01:57;18.70;43.90
26035;DHT22;13809;48.632;11.576;2023-08-30T22:07:02;18.60;44.20
26035;DHT22;13809;48.632;11.576;2023-08-30T22:12:08;18.40;43.90
26035;DHT22;13809;48.632;11.576;2023-08-30T22:17:12;18.20;44.20
26035;DHT22;13809;48.632;11.576;2023-08-30T22:22:15;18.00;44.90
26035;DHT22;13809;48.632;11.576;2023-08-30T22:27:20;17.90;44.90
26035;DHT22;13809;48.632;11.576;2023-08-30T22:32:24;17.90;45.20
26035;DHT22;13809;48.632;11.576;2023-08-30T22:37:28;17.90;45.70
26035;DHT22;13809;48.632;11.576;2023-08-30T22:42:32;17.80;45.40
26035;DHT22;13809;48.632;11.576;2023-08-30T22:47:36;17.80;45.60
26035;DHT22;13809;48.632;11.576;2023-08-30T22:52:40;17.80;46.30
26035;DHT22;13809;48.632;11.576;2023-08-30T22:57:43;17.80;45.90
26035;DHT22;13809;48.632;11.576;2023-08-30T23:02:48;17.70;46.10
26035;DHT22;13809;48.632;11.576;2023-08-30T23:07:52;17.70;46.70
26035;DHT22;13809;48.632;11.576;2023-08-30T23:12:56;17.70;46.20
26035;DHT22;13809;48.632;11.576;2023-08-30T23:18:01;17.60;46.50
26035;DHT22;13809;48.632;11.576;2023-08-30T23:23:07;17.60;46.60
26035;DHT22;13809;48.632;11.576;2023-08-30T23:28:11;17.60;46.60
26035;DHT22;13809;48.632;11.576;2023-08-30T23:33:17;17.70;46.70
26035;DHT22;13809;48.632;11.576;2023-08-30T23:38:20;17.70;46.70
26035;DHT22;13809;48.632;11.576;2023-08-30T23:43:23;17.80;46.60
26035;DHT22;13809;48.632;11.576;2023-08-30T23:48:28;17.80;46.10
26035;DHT22;13809;48.632;11.576;2023-08-30T23:53:31;17.80;46.80
26035;DHT22;13809;48.632;11.576;2023-08-30T23:58:34;17.80;46.30
